< Typhoon 201927 2019 Season Typhoon 201929 >
Typhoon 201928 (KAMMURI)
General InformationTrack Information on Google MapsDetailed Wind InformationForecast History on Google MapsAccess Analytics MapList of All Images || NewsDisaster Info.WeblogTrackbackTyphoon FrontTwiphoonTyphoon Now!Typhoon ImaginationJMA Disaster Info. XMLResourceGoogle EarthGE AnimationAtom FeedGeoJSON
Detalied Best Track (Time Zone = UTC)
Year Month Day Hour Lat. Long. Pressure (hPa) Wind (kt) Class Image Chart
2019 11 24 12 8.6 159.7 1004 0 2 Image Chart
2019 11 24 18 8.7 158.6 1004 0 2 Image Chart
2019 11 25 00 8.8 157.0 1004 0 2 Image Chart
2019 11 25 06 9.2 155.2 1002 0 2 Image Chart
2019 11 25 12 9.9 153.6 1004 0 2 Image Chart
2019 11 25 18 10.2 151.3 1002 0 2 Image Chart
2019 11 26 00 10.7 149.2 1000 35 3 Image Chart
2019 11 26 06 10.9 147.4 998 40 3 Image Chart
2019 11 26 12 11.3 145.3 998 40 3 Image Chart
2019 11 26 18 11.3 143.4 994 45 3 Image Chart
2019 11 27 00 11.3 142.1 992 50 4 Image Chart
2019 11 27 06 11.4 141.0 992 50 4 Image Chart
2019 11 27 12 11.4 140.0 990 55 4 Image Chart
2019 11 27 18 11.5 139.2 985 60 4 Image Chart
2019 11 28 00 11.9 138.8 980 65 5 Image Chart
2019 11 28 06 12.7 138.7 980 65 5 Image Chart
2019 11 28 12 13.4 138.7 980 65 5 Image Chart
2019 11 28 18 14.2 138.6 975 70 5 Image Chart
2019 11 29 00 14.1 138.0 975 70 5 Image Chart
2019 11 29 06 14.0 137.3 975 70 5 Image Chart
2019 11 29 12 13.9 136.7 975 70 5 Image Chart
2019 11 29 18 13.8 136.1 975 70 5 Image Chart
2019 11 30 00 13.6 135.5 975 70 5 Image Chart
2019 11 30 06 13.4 134.6 970 75 5 Image Chart
2019 11 30 12 13.2 133.3 970 75 5 Image Chart
2019 11 30 18 13.1 131.8 970 75 5 Image Chart
2019 12 1 00 13.1 131.0 970 75 5 Image Chart
2019 12 1 06 13.1 130.2 970 75 5 Image Chart
2019 12 1 12 13.1 129.2 970 75 5 Image Chart
2019 12 1 18 13.2 127.6 970 75 5 Image Chart
2019 12 2 00 12.9 126.6 960 80 5 Image Chart
2019 12 2 06 13.0 125.6 955 85 5 Image Chart
2019 12 2 12 12.9 124.7 950 90 5 Image Chart
2019 12 2 18 13.2 123.5 950 90 5 Image Chart
2019 12 3 00 13.2 122.2 960 80 5 Image Chart
2019 12 3 06 13.3 120.8 975 70 5 Image Chart
2019 12 3 12 13.4 119.7 980 65 5 Image Chart
2019 12 3 18 13.7 118.6 985 60 4 Image Chart
2019 12 4 00 14.0 117.6 992 50 4 Image Chart
2019 12 4 06 14.2 116.8 992 50 4 Image Chart
2019 12 4 12 14.2 116.1 994 45 3 Image Chart
2019 12 4 18 14.3 115.2 1000 35 3 Image Chart
2019 12 5 00 14.3 114.3 1002 35 3 Image Chart
2019 12 5 06 13.8 113.7 1002 35 3 Image Chart
2019 12 5 12 13.1 113.3 1004 35 3 Image Chart
2019 12 5 18 12.4 112.9 1008 0 2 Image Chart
2019 12 6 00 11.4 112.9 1008 0 2 Image Chart
Japan Meteorological Agency Best Track Data | Correction Date : 2020-01-22
< Typhoon 201927 2019 Season Typhoon 201929 >

Help